Rhodes, Greece
Current Conditions -  °F | °C
As of 12:50 PM on Monday 22 Dec 2014 (Local Time) from LGRP Reporting Station
Few Clouds Few Clouds  
Wind Chill: 59°   Ceiling: Unl
Heat Index: 59°   Visibility: 6mi
Dew Point: 27°   Wind: 20mph
Humidity: 29%   Direction: 320°NW
Pressure: 30.12"   Gusts: 31mph
Location:  36.43°N, 28.22°E
Report Text: LGRP 220950Z 32017G27KT 9999 FEW018 15/M03 Q1020 NOSIG
Loading
Personal Weather Stations






























Interactive Weather Map New forecast layout! Learn more

10-Day Weather Forecast

Advertisements
Track Severe Weather on mobile